createdAt,value
2022-09-09T00:00:17.774Z,44.23
2022-09-09T00:00:49.271Z,44.61
2022-09-09T00:01:20.733Z,44.49
2022-09-09T00:01:52.195Z,44.56
2022-09-09T00:02:23.841Z,44.42
2022-09-09T00:02:55.369Z,44.57
2022-09-09T00:03:26.947Z,44.69
2022-09-09T00:03:58.479Z,44.37
2022-09-09T00:04:29.887Z,44.62
2022-09-09T00:05:01.565Z,44.69
2022-09-09T00:05:33.022Z,44.57
2022-09-09T00:06:04.447Z,44.82
2022-09-09T00:06:35.868Z,44.48
2022-09-09T00:07:07.508Z,44.53
2022-09-09T00:07:38.940Z,44.73
2022-09-09T00:08:10.356Z,44.84
2022-09-09T00:08:41.832Z,44.91
2022-09-09T00:09:13.266Z,44.97
2022-09-09T00:09:44.699Z,44.67
2022-09-09T00:10:16.358Z,44.94
2022-09-09T00:10:47.809Z,44.90
2022-09-09T00:11:19.227Z,44.87
2022-09-09T00:11:50.691Z,44.75
2022-09-09T00:12:22.169Z,44.88
2022-09-09T00:12:53.682Z,44.68
2022-09-09T00:13:25.129Z,44.82
2022-09-09T00:13:56.586Z,44.91
2022-09-09T00:14:27.978Z,44.88
2022-09-09T00:14:59.475Z,44.61
2022-09-09T00:15:30.942Z,44.72
2022-09-09T00:16:02.456Z,44.97
2022-09-09T00:16:33.922Z,44.81
2022-09-09T00:17:05.369Z,44.65
2022-09-09T00:17:36.889Z,45.12
2022-09-09T00:18:08.323Z,44.88
2022-09-09T00:18:39.779Z,44.91
2022-09-09T00:19:11.264Z,45.01
2022-09-09T00:19:42.791Z,44.95
2022-09-09T00:20:14.186Z,44.65
2022-09-09T00:20:45.637Z,44.63
2022-09-09T00:21:17.067Z,44.68
2022-09-09T00:21:48.466Z,44.68
2022-09-09T00:22:19.882Z,44.59
2022-09-09T00:22:51.353Z,44.73
2022-09-09T00:23:22.809Z,44.86
2022-09-09T00:23:56.129Z,44.75
2022-09-09T00:24:27.582Z,44.88
2022-09-09T00:24:59.072Z,44.65
2022-09-09T00:25:30.593Z,44.65
2022-09-09T00:26:02.005Z,44.58
2022-09-09T00:26:33.439Z,44.65
2022-09-09T00:27:04.866Z,44.62
2022-09-09T00:27:36.329Z,44.71
2022-09-09T00:28:07.833Z,44.54
2022-09-09T00:28:39.374Z,44.59
2022-09-09T00:29:10.783Z,44.58
2022-09-09T00:29:42.210Z,44.85
2022-09-09T00:30:13.609Z,44.83
2022-09-09T00:30:45.233Z,44.52
2022-09-09T00:31:16.758Z,44.62
2022-09-09T00:31:48.266Z,44.60
2022-09-09T00:32:19.769Z,44.81
2022-09-09T00:32:51.270Z,44.70
2022-09-09T00:33:22.788Z,44.55
2022-09-09T00:33:54.254Z,44.83
2022-09-09T00:34:25.689Z,44.58
2022-09-09T00:34:57.177Z,44.55
2022-09-09T00:35:28.650Z,44.89
2022-09-09T00:36:00.097Z,44.52
2022-09-09T00:36:31.548Z,44.84
2022-09-09T00:37:02.942Z,44.74
2022-09-09T00:37:34.430Z,44.82
2022-09-09T00:38:05.948Z,44.81
2022-09-09T00:38:37.430Z,44.89
2022-09-09T00:39:08.884Z,44.82
2022-09-09T00:39:40.376Z,44.54
2022-09-09T00:40:11.955Z,44.71
2022-09-09T00:40:43.394Z,44.73
2022-09-09T00:41:14.878Z,44.61
2022-09-09T00:41:46.546Z,44.81
2022-09-09T00:42:18.011Z,44.72
2022-09-09T00:42:52.056Z,44.86
2022-09-09T00:43:23.511Z,44.61
2022-09-09T00:43:55.025Z,44.66
2022-09-09T00:44:26.433Z,44.67
2022-09-09T00:44:57.890Z,44.59
2022-09-09T00:45:29.315Z,44.53
2022-09-09T00:46:00.835Z,44.80
2022-09-09T00:46:32.340Z,44.54
2022-09-09T00:47:03.829Z,44.55
2022-09-09T00:47:35.377Z,44.62
2022-09-09T00:48:06.792Z,44.78
2022-09-09T00:48:38.220Z,44.90
2022-09-09T00:49:09.751Z,44.56
2022-09-09T00:49:41.178Z,44.67
2022-09-09T00:50:12.596Z,44.86
2022-09-09T00:50:44.084Z,44.63
2022-09-09T00:51:15.484Z,44.70
2022-09-09T00:51:46.928Z,44.80
2022-09-09T00:52:18.340Z,44.65
2022-09-09T00:52:49.725Z,44.70
2022-09-09T00:53:21.140Z,44.58
2022-09-09T00:53:52.577Z,44.53
2022-09-09T00:54:24.111Z,44.56
2022-09-09T00:54:55.560Z,44.65
2022-09-09T00:55:27.021Z,44.61
2022-09-09T00:55:58.458Z,44.52
2022-09-09T00:56:29.905Z,44.43
2022-09-09T00:57:04.045Z,44.50
2022-09-09T00:57:35.540Z,44.83
2022-09-09T00:58:07.031Z,44.55
2022-09-09T00:58:38.465Z,44.48
2022-09-09T00:59:09.966Z,44.51
2022-09-09T00:59:41.420Z,44.84
2022-09-09T01:00:12.840Z,44.72
2022-09-09T01:00:44.319Z,44.66
2022-09-09T01:01:15.791Z,44.75
2022-09-09T01:01:47.321Z,44.53
2022-09-09T01:02:18.790Z,44.44
2022-09-09T01:02:50.503Z,44.66
2022-09-09T01:03:21.995Z,44.47
2022-09-09T01:03:53.449Z,44.75
2022-09-09T01:04:24.885Z,44.67
2022-09-09T01:04:56.282Z,44.51
2022-09-09T01:05:27.706Z,44.68
2022-09-09T01:05:59.131Z,44.70
2022-09-09T01:06:30.562Z,44.66
2022-09-09T01:07:02.016Z,44.49
2022-09-09T01:07:33.634Z,44.47
2022-09-09T01:08:05.096Z,44.48
2022-09-09T01:08:36.639Z,44.67
2022-09-09T01:09:08.118Z,44.45
2022-09-09T01:09:39.548Z,44.45
2022-09-09T01:10:10.961Z,44.41
2022-09-09T01:10:42.500Z,44.70
2022-09-09T01:11:14.140Z,44.48
2022-09-09T01:11:45.553Z,44.40
2022-09-09T01:12:16.954Z,44.56
2022-09-09T01:12:48.426Z,44.72
2022-09-09T01:13:19.904Z,44.53
2022-09-09T01:13:51.313Z,44.42
2022-09-09T01:14:22.791Z,44.59
2022-09-09T01:14:54.234Z,44.44
2022-09-09T01:15:25.706Z,44.34
2022-09-09T01:16:01.205Z,44.42
2022-09-09T01:16:33.438Z,44.44
2022-09-09T01:17:04.966Z,44.40
2022-09-09T01:17:36.535Z,44.31
2022-09-09T01:18:08.038Z,44.67
2022-09-09T01:18:39.435Z,44.70
2022-09-09T01:19:10.907Z,44.34
2022-09-09T01:19:42.364Z,44.36
2022-09-09T01:20:13.788Z,44.78
2022-09-09T01:20:45.406Z,44.37
2022-09-09T01:21:16.823Z,44.41
2022-09-09T01:21:48.247Z,44.44
2022-09-09T01:22:19.704Z,44.74
2022-09-09T01:22:51.136Z,44.71
2022-09-09T01:23:22.637Z,44.54
2022-09-09T01:23:54.075Z,44.62
2022-09-09T01:24:25.576Z,44.42
2022-09-09T01:24:57.073Z,44.41
2022-09-09T01:25:28.486Z,44.42
2022-09-09T01:25:59.948Z,44.44
2022-09-09T01:26:31.353Z,44.38
2022-09-09T01:27:02.779Z,44.39
2022-09-09T01:27:34.229Z,44.73
2022-09-09T01:28:05.649Z,44.46
2022-09-09T01:28:37.105Z,44.61
2022-09-09T01:29:11.682Z,44.50
2022-09-09T01:29:43.091Z,44.38
2022-09-09T01:30:14.532Z,44.42
2022-09-09T01:30:46.002Z,44.61
2022-09-09T01:31:17.599Z,44.61
2022-09-09T01:31:49.119Z,44.32
2022-09-09T01:32:20.528Z,44.37
2022-09-09T01:32:51.948Z,44.32
2022-09-09T01:33:23.402Z,44.43
2022-09-09T01:33:54.912Z,44.38
2022-09-09T01:34:26.337Z,44.32
2022-09-09T01:34:57.774Z,44.29
2022-09-09T01:35:29.203Z,44.24
2022-09-09T01:36:00.698Z,44.32
2022-09-09T01:36:32.147Z,44.39
2022-09-09T01:37:03.575Z,44.60
2022-09-09T01:37:35.012Z,44.29
2022-09-09T01:38:06.521Z,44.34
2022-09-09T01:38:37.976Z,44.32
2022-09-09T01:39:09.500Z,44.34
2022-09-09T01:39:41.011Z,44.29
2022-09-09T01:40:12.596Z,44.31
2022-09-09T01:40:44.094Z,44.34
2022-09-09T01:41:15.555Z,44.56
2022-09-09T01:41:47.075Z,44.40
2022-09-09T01:42:18.489Z,44.48
2022-09-09T01:42:49.879Z,44.50
2022-09-09T01:43:21.402Z,44.49
2022-09-09T01:43:52.816Z,44.33
2022-09-09T01:44:24.361Z,44.54
2022-09-09T01:44:55.782Z,44.49
2022-09-09T01:45:27.229Z,44.46
2022-09-09T01:45:58.713Z,44.46
2022-09-09T01:46:30.281Z,44.48
2022-09-09T01:47:01.754Z,44.20
2022-09-09T01:47:33.225Z,44.22
2022-09-09T01:48:04.644Z,44.55
2022-09-09T01:48:36.150Z,44.22
2022-09-09T01:49:07.654Z,44.55
2022-09-09T01:49:39.110Z,44.57
2022-09-09T01:50:10.570Z,44.25
2022-09-09T01:50:42.056Z,44.26
2022-09-09T01:51:13.533Z,44.39
2022-09-09T01:51:45.046Z,44.32
2022-09-09T01:52:16.746Z,44.36
2022-09-09T01:52:51.080Z,44.33
2022-09-09T01:53:22.494Z,44.45
2022-09-09T01:53:53.906Z,44.26
2022-09-09T01:54:25.399Z,44.17
2022-09-09T01:54:56.951Z,44.49
2022-09-09T01:55:28.318Z,44.15
2022-09-09T01:55:59.766Z,44.18
2022-09-09T01:56:31.259Z,44.19
2022-09-09T01:57:02.717Z,44.21
2022-09-09T01:57:34.132Z,44.37
2022-09-09T01:58:05.545Z,44.23
2022-09-09T01:58:37.058Z,44.37
2022-09-09T01:59:08.546Z,44.40
2022-09-09T01:59:40.026Z,44.13
2022-09-09T02:00:11.553Z,44.39
2022-09-09T02:00:45.649Z,44.17
2022-09-09T02:01:17.129Z,44.11
2022-09-09T02:01:48.652Z,44.17
2022-09-09T02:02:20.162Z,44.10
2022-09-09T02:02:51.738Z,44.34
2022-09-09T02:03:23.224Z,44.04
2022-09-09T02:03:54.663Z,44.29
2022-09-09T02:04:26.066Z,44.11
2022-09-09T02:04:57.565Z,44.13
2022-09-09T02:05:29.071Z,44.09
2022-09-09T02:06:00.468Z,44.03
2022-09-09T02:06:31.903Z,44.08
2022-09-09T02:07:03.530Z,44.21
2022-09-09T02:07:35.068Z,44.35
2022-09-09T02:08:06.496Z,44.10
2022-09-09T02:08:37.988Z,44.45
2022-09-09T02:09:09.405Z,44.04
2022-09-09T02:09:40.894Z,44.35
2022-09-09T02:10:12.387Z,44.05
2022-09-09T02:10:43.878Z,44.12
2022-09-09T02:11:15.324Z,44.31
2022-09-09T02:11:46.713Z,44.02
2022-09-09T02:12:18.122Z,44.11
2022-09-09T02:12:49.558Z,44.31
2022-09-09T02:13:20.970Z,44.02
2022-09-09T02:13:52.476Z,44.22
2022-09-09T02:14:23.872Z,44.13
2022-09-09T02:14:55.307Z,44.38
2022-09-09T02:15:26.827Z,44.42
2022-09-09T02:15:58.246Z,44.15
2022-09-09T02:16:29.723Z,44.45
2022-09-09T02:17:01.182Z,44.08
2022-09-09T02:17:32.785Z,44.44
2022-09-09T02:18:04.187Z,44.27
2022-09-09T02:18:35.774Z,44.35
2022-09-09T02:19:07.419Z,44.38
2022-09-09T02:19:38.943Z,44.26
2022-09-09T02:20:10.353Z,44.01
2022-09-09T02:20:41.797Z,44.16
2022-09-09T02:21:13.229Z,44.09
2022-09-09T02:21:44.685Z,43.89
2022-09-09T02:22:16.076Z,44.18
2022-09-09T02:22:47.591Z,44.21
2022-09-09T02:23:19.112Z,44.38
2022-09-09T02:23:50.604Z,44.16
2022-09-09T02:24:22.060Z,44.07
2022-09-09T02:24:53.475Z,44.20
2022-09-09T02:25:24.906Z,44.21
2022-09-09T02:25:56.382Z,44.30
2022-09-09T02:26:27.801Z,44.02
2022-09-09T02:26:59.265Z,44.31
2022-09-09T02:27:30.664Z,44.23
2022-09-09T02:28:02.196Z,44.05
2022-09-09T02:28:33.715Z,44.29
2022-09-09T02:29:05.372Z,44.38
2022-09-09T02:29:36.748Z,44.36
2022-09-09T02:30:08.197Z,44.08
2022-09-09T02:30:39.742Z,44.07
2022-09-09T02:31:11.219Z,44.11
2022-09-09T02:31:42.724Z,44.00
2022-09-09T02:32:14.247Z,44.02
2022-09-09T02:32:45.697Z,43.97
2022-09-09T02:33:17.111Z,44.02
2022-09-09T02:33:48.570Z,44.00
2022-09-09T02:34:20.044Z,43.97
2022-09-09T02:34:51.537Z,44.19
2022-09-09T02:35:23.001Z,44.04
2022-09-09T02:35:54.445Z,44.25
2022-09-09T02:36:26.132Z,44.22
2022-09-09T02:36:57.556Z,43.90
2022-09-09T02:37:32.050Z,44.05
2022-09-09T02:38:03.493Z,43.96
2022-09-09T02:38:35.078Z,44.10
2022-09-09T02:39:06.654Z,44.19
2022-09-09T02:39:38.190Z,43.90
2022-09-09T02:40:09.816Z,44.00
2022-09-09T02:40:41.296Z,43.96
2022-09-09T02:41:12.773Z,43.92
2022-09-09T02:41:44.278Z,44.22
2022-09-09T02:42:15.736Z,43.85
2022-09-09T02:42:47.190Z,43.85
2022-09-09T02:43:18.651Z,43.94
2022-09-09T02:43:50.128Z,43.96
2022-09-09T02:44:21.606Z,43.95
2022-09-09T02:44:53.105Z,44.24
2022-09-09T02:45:24.589Z,44.25
2022-09-09T02:45:56.174Z,44.15
2022-09-09T02:46:27.672Z,43.95
2022-09-09T02:46:59.090Z,44.20
2022-09-09T02:47:30.724Z,43.94
2022-09-09T02:48:02.204Z,44.21
2022-09-09T02:48:33.715Z,43.94
2022-09-09T02:49:05.246Z,44.17
2022-09-09T02:49:36.662Z,43.91
2022-09-09T02:50:08.133Z,44.26
2022-09-09T02:50:39.547Z,43.95
2022-09-09T02:51:10.985Z,44.06
2022-09-09T02:51:42.664Z,44.05
2022-09-09T02:52:14.148Z,43.92
2022-09-09T02:52:45.607Z,43.97
2022-09-09T02:53:17.052Z,43.91
2022-09-09T02:53:48.559Z,44.08
2022-09-09T02:54:20.009Z,43.88
2022-09-09T02:54:51.439Z,43.86
2022-09-09T02:55:22.887Z,44.13
2022-09-09T02:55:54.559Z,44.05
2022-09-09T02:56:25.931Z,44.07
2022-09-09T02:56:57.415Z,44.20
2022-09-09T02:57:28.859Z,43.94
2022-09-09T02:58:00.321Z,43.89
2022-09-09T02:58:31.875Z,44.15
2022-09-09T02:59:03.364Z,44.20
2022-09-09T02:59:35.001Z,44.13
2022-09-09T03:00:06.459Z,44.09
2022-09-09T03:00:37.899Z,43.91
2022-09-09T03:01:09.471Z,44.08
2022-09-09T03:01:40.876Z,43.98
2022-09-09T03:02:12.382Z,43.86
2022-09-09T03:02:43.940Z,43.88
2022-09-09T03:03:15.395Z,44.05
2022-09-09T03:03:46.902Z,43.90
2022-09-09T03:04:18.358Z,43.87
2022-09-09T03:04:49.880Z,43.99
2022-09-09T03:05:21.350Z,44.05
2022-09-09T03:05:52.778Z,44.14
2022-09-09T03:06:24.190Z,43.81
2022-09-09T03:06:55.601Z,43.88
2022-09-09T03:07:27.057Z,43.92
2022-09-09T03:07:58.596Z,43.80
2022-09-09T03:08:30.062Z,44.15
2022-09-09T03:09:01.534Z,43.78
2022-09-09T03:09:32.984Z,43.82
2022-09-09T03:10:05.393Z,43.78
2022-09-09T03:10:36.857Z,43.77
2022-09-09T03:11:08.361Z,43.83
2022-09-09T03:11:39.768Z,44.08
2022-09-09T03:12:11.222Z,43.88
2022-09-09T03:12:42.635Z,44.00
2022-09-09T03:13:14.071Z,43.96
2022-09-09T03:13:45.563Z,43.80
2022-09-09T03:14:17.045Z,43.98
2022-09-09T03:14:48.421Z,43.84
2022-09-09T03:15:19.917Z,43.81
2022-09-09T03:15:51.298Z,43.74
2022-09-09T03:16:22.797Z,43.88
2022-09-09T03:16:54.309Z,43.92
2022-09-09T03:17:25.797Z,43.95
2022-09-09T03:17:57.221Z,43.90
2022-09-09T03:18:28.693Z,43.98
2022-09-09T03:19:00.100Z,44.05
2022-09-09T03:19:31.504Z,44.07
2022-09-09T03:20:02.998Z,43.82
2022-09-09T03:20:34.498Z,44.01
2022-09-09T03:21:06.018Z,43.90
2022-09-09T03:21:37.456Z,43.66
2022-09-09T03:22:08.920Z,43.73
2022-09-09T03:22:40.390Z,43.66
2022-09-09T03:23:15.636Z,43.87
2022-09-09T03:23:47.459Z,43.90
2022-09-09T03:24:18.916Z,43.71
2022-09-09T03:24:50.338Z,43.71
2022-09-09T03:25:21.796Z,43.74
2022-09-09T03:25:53.252Z,43.68
2022-09-09T03:26:26.668Z,43.71
2022-09-09T03:26:58.136Z,43.83
2022-09-09T03:27:29.671Z,43.73
2022-09-09T03:28:51.316Z,43.80
2022-09-09T03:29:22.486Z,43.77
2022-09-09T03:29:53.771Z,44.00
2022-09-09T03:30:25.112Z,43.66
2022-09-09T03:30:56.505Z,43.68
2022-09-09T03:31:27.930Z,43.77
2022-09-09T03:31:59.685Z,43.70
2022-09-09T03:32:31.217Z,43.63
2022-09-09T03:33:02.625Z,43.66
2022-09-09T03:33:34.016Z,43.70
2022-09-09T03:34:05.387Z,43.88
2022-09-09T03:34:36.775Z,43.93
2022-09-09T03:35:08.171Z,43.71
2022-09-09T03:35:39.570Z,43.74
2022-09-09T03:36:10.992Z,43.90
2022-09-09T03:36:42.412Z,43.74
2022-09-09T03:37:14.085Z,43.67
2022-09-09T03:37:45.479Z,43.81
2022-09-09T03:38:16.871Z,43.72
2022-09-09T03:38:48.261Z,43.93
2022-09-09T03:39:19.646Z,44.04
2022-09-09T03:39:51.317Z,43.84
2022-09-09T03:40:22.760Z,43.70
2022-09-09T03:40:54.157Z,43.96
2022-09-09T03:41:25.565Z,43.74
2022-09-09T03:41:56.917Z,43.82
2022-09-09T03:42:28.282Z,43.92
2022-09-09T03:42:59.660Z,43.91
2022-09-09T03:43:31.078Z,43.67
2022-09-09T03:44:02.453Z,43.71
2022-09-09T03:44:33.845Z,43.78
2022-09-09T03:45:05.218Z,43.62
2022-09-09T03:45:36.629Z,43.55
2022-09-09T03:46:08.162Z,43.67
2022-09-09T03:46:39.590Z,43.71
2022-09-09T03:47:10.953Z,43.92
2022-09-09T03:47:42.350Z,43.73
2022-09-09T03:48:13.750Z,43.67
2022-09-09T03:48:45.120Z,43.73
2022-09-09T03:49:16.529Z,43.92
2022-09-09T03:49:47.945Z,43.81
2022-09-09T03:50:19.367Z,43.96
2022-09-09T03:50:50.710Z,43.61
2022-09-09T03:51:22.086Z,43.87
2022-09-09T03:51:53.469Z,43.58
2022-09-09T03:52:24.864Z,44.00
2022-09-09T03:52:56.241Z,43.83
2022-09-09T03:53:27.638Z,43.57
2022-09-09T03:53:59.033Z,43.81
2022-09-09T03:54:30.403Z,43.87
2022-09-09T03:55:01.742Z,43.57
2022-09-09T03:55:33.297Z,43.60
2022-09-09T03:56:04.717Z,43.71
2022-09-09T03:56:36.194Z,43.93
2022-09-09T03:57:07.590Z,43.61
2022-09-09T03:57:38.940Z,43.57
2022-09-09T03:58:10.280Z,43.59
2022-09-09T03:58:41.715Z,43.93
2022-09-09T03:59:13.093Z,43.65
2022-09-09T03:59:44.471Z,43.76
2022-09-09T04:00:15.857Z,44.04
2022-09-09T04:00:47.334Z,43.91
2022-09-09T04:01:18.878Z,43.72
2022-09-09T04:01:50.398Z,43.85
2022-09-09T04:02:21.882Z,43.68
2022-09-09T04:02:53.250Z,43.91
2022-09-09T04:03:27.783Z,43.58
2022-09-09T04:03:59.827Z,43.66
2022-09-09T04:04:31.213Z,43.58
2022-09-09T04:05:02.644Z,43.68
2022-09-09T04:05:34.034Z,43.95
2022-09-09T04:06:05.470Z,43.77
2022-09-09T04:06:36.886Z,43.91
2022-09-09T04:07:08.245Z,43.83
2022-09-09T04:07:39.708Z,43.47
2022-09-09T04:08:11.117Z,43.90
2022-09-09T04:08:42.466Z,43.87
2022-09-09T04:09:13.904Z,43.81
2022-09-09T04:09:45.267Z,43.91
2022-09-09T04:10:16.721Z,43.91
2022-09-09T04:10:48.170Z,43.69
2022-09-09T04:11:19.626Z,43.62
2022-09-09T04:11:51.031Z,43.88
2022-09-09T04:12:22.460Z,43.81
2022-09-09T04:12:53.897Z,43.62
2022-09-09T04:13:25.266Z,43.96
2022-09-09T04:13:56.687Z,43.71
2022-09-09T04:14:28.407Z,43.96
2022-09-09T04:14:59.785Z,43.83
2022-09-09T04:15:31.212Z,43.65
2022-09-09T04:16:02.694Z,43.95
2022-09-09T04:16:34.391Z,43.78
2022-09-09T04:17:05.879Z,43.96
2022-09-09T04:17:37.275Z,43.71
2022-09-09T04:18:08.663Z,43.76
2022-09-09T04:18:40.107Z,43.59
2022-09-09T04:19:11.445Z,43.89
2022-09-09T04:19:42.828Z,43.83
2022-09-09T04:20:14.279Z,43.97
2022-09-09T04:20:45.699Z,43.79
2022-09-09T04:21:17.142Z,43.81
2022-09-09T04:21:48.531Z,44.03
2022-09-09T04:22:19.938Z,43.86
2022-09-09T04:22:51.329Z,43.70
2022-09-09T04:23:22.722Z,43.73
2022-09-09T04:23:54.134Z,43.97
2022-09-09T04:24:25.476Z,43.71
2022-09-09T04:24:56.825Z,44.02
2022-09-09T04:25:28.292Z,43.89
2022-09-09T04:25:59.662Z,43.69
2022-09-09T04:26:31.277Z,43.80
2022-09-09T04:27:02.656Z,43.70
2022-09-09T04:27:34.215Z,43.76
2022-09-09T04:28:05.609Z,43.78
2022-09-09T04:28:37.125Z,43.99
2022-09-09T04:29:08.763Z,43.78
2022-09-09T04:29:40.258Z,44.06
2022-09-09T04:30:11.712Z,44.07
2022-09-09T04:30:43.141Z,44.04
2022-09-09T04:31:14.559Z,43.95
2022-09-09T04:31:46.014Z,43.93
2022-09-09T04:32:17.583Z,44.04
2022-09-09T04:32:49.001Z,44.09
2022-09-09T04:33:20.420Z,44.12
2022-09-09T04:33:51.889Z,43.92
2022-09-09T04:34:23.286Z,44.13
2022-09-09T04:34:54.758Z,43.92
2022-09-09T04:35:26.220Z,44.08
2022-09-09T04:35:57.595Z,43.87
2022-09-09T04:36:28.988Z,44.14
2022-09-09T04:37:00.369Z,43.87
2022-09-09T04:37:31.747Z,43.95
2022-09-09T04:38:03.127Z,43.85
2022-09-09T04:38:34.632Z,44.09
2022-09-09T04:39:06.031Z,44.08
2022-09-09T04:39:37.467Z,43.88
2022-09-09T04:40:08.887Z,44.17
2022-09-09T04:40:40.431Z,44.13
2022-09-09T04:41:11.812Z,43.94
2022-09-09T04:41:43.170Z,44.00
2022-09-09T04:42:14.530Z,44.16
2022-09-09T04:42:45.974Z,44.21
2022-09-09T04:43:17.407Z,43.99
2022-09-09T04:43:48.770Z,44.25
2022-09-09T04:44:20.211Z,43.96
2022-09-09T04:44:51.596Z,44.17
2022-09-09T04:45:23.000Z,44.08
2022-09-09T04:45:54.587Z,43.94
2022-09-09T04:46:26.049Z,44.06
2022-09-09T04:46:57.443Z,44.25
2022-09-09T04:47:28.815Z,43.96
2022-09-09T04:48:00.299Z,43.91
2022-09-09T04:48:31.702Z,44.08
2022-09-09T04:49:03.203Z,44.16
2022-09-09T04:49:34.599Z,43.95
2022-09-09T04:50:06.126Z,44.10
2022-09-09T04:50:37.500Z,44.12
2022-09-09T04:51:08.923Z,44.21
2022-09-09T04:51:40.306Z,44.17
2022-09-09T04:52:11.706Z,44.12
2022-09-09T04:52:43.126Z,44.28
2022-09-09T04:53:14.467Z,44.16
2022-09-09T04:53:45.931Z,44.09
2022-09-09T04:54:17.399Z,44.29
2022-09-09T04:54:48.755Z,44.35
2022-09-09T04:55:20.126Z,44.31
2022-09-09T04:55:51.508Z,44.12
2022-09-09T04:56:22.946Z,44.34
2022-09-09T04:56:54.357Z,44.20
2022-09-09T04:57:25.704Z,44.29
2022-09-09T04:57:57.112Z,44.24
2022-09-09T04:58:28.586Z,44.23
2022-09-09T04:59:00.030Z,43.95
2022-09-09T04:59:31.470Z,44.14
2022-09-09T05:00:02.859Z,43.99
2022-09-09T05:00:34.332Z,43.99
2022-09-09T05:01:05.782Z,44.02
2022-09-09T05:01:37.248Z,44.30
2022-09-09T05:02:08.705Z,44.12
2022-09-09T05:02:40.140Z,44.19
2022-09-09T05:03:11.599Z,44.43
2022-09-09T05:03:42.994Z,44.02
2022-09-09T05:04:14.358Z,44.23
2022-09-09T05:04:45.730Z,44.09
2022-09-09T05:05:17.202Z,44.23
2022-09-09T05:05:48.584Z,43.98
2022-09-09T05:06:19.969Z,44.29
2022-09-09T05:06:51.400Z,44.20
2022-09-09T05:07:22.813Z,44.30
2022-09-09T05:07:54.171Z,44.00
2022-09-09T05:08:25.534Z,44.31
2022-09-09T05:08:56.972Z,43.99
2022-09-09T05:09:28.347Z,44.33
2022-09-09T05:09:59.759Z,44.34
2022-09-09T05:10:31.152Z,44.05
2022-09-09T05:11:02.579Z,44.24
2022-09-09T05:11:33.987Z,44.09
2022-09-09T05:12:05.396Z,44.23
2022-09-09T05:12:36.776Z,44.23
2022-09-09T05:13:08.186Z,44.06
2022-09-09T05:13:41.472Z,43.98
2022-09-09T05:14:13.035Z,44.16
2022-09-09T05:14:44.430Z,44.12
2022-09-09T05:15:15.938Z,44.26
2022-09-09T05:15:47.633Z,44.16
2022-09-09T05:16:19.048Z,44.25
2022-09-09T05:16:50.539Z,44.06
2022-09-09T05:17:21.916Z,44.24
2022-09-09T05:17:53.315Z,44.17
2022-09-09T05:18:24.693Z,44.16
2022-09-09T05:18:56.088Z,44.00
2022-09-09T05:19:27.530Z,43.98
2022-09-09T05:19:58.935Z,44.18
2022-09-09T05:20:30.304Z,44.08
2022-09-09T05:21:01.713Z,44.00
2022-09-09T05:21:33.131Z,44.16
2022-09-09T05:22:04.523Z,44.28
2022-09-09T05:22:35.943Z,44.17
2022-09-09T05:23:07.436Z,44.16
2022-09-09T05:23:38.870Z,44.29
2022-09-09T05:24:10.222Z,44.25
2022-09-09T05:24:41.596Z,44.17
2022-09-09T05:25:12.986Z,44.07
2022-09-09T05:25:44.461Z,44.08
2022-09-09T05:26:17.719Z,44.18
2022-09-09T05:26:49.261Z,44.00
2022-09-09T05:27:20.693Z,44.15
2022-09-09T05:27:52.015Z,44.28
2022-09-09T05:28:23.480Z,44.21
2022-09-09T05:28:54.871Z,44.08
2022-09-09T05:29:26.377Z,43.89
2022-09-09T05:29:57.782Z,43.95
2022-09-09T05:30:29.189Z,44.24
2022-09-09T05:31:00.640Z,43.95
2022-09-09T05:31:32.108Z,44.12
2022-09-09T05:32:03.637Z,44.25
2022-09-09T05:32:35.060Z,44.21
2022-09-09T05:33:06.407Z,44.08
2022-09-09T05:33:37.760Z,44.17
2022-09-09T05:34:09.103Z,43.96
2022-09-09T05:34:40.456Z,44.07
2022-09-09T05:35:11.860Z,43.98
2022-09-09T05:35:43.235Z,43.87
2022-09-09T05:36:14.658Z,44.14
2022-09-09T05:36:46.003Z,44.23
2022-09-09T05:37:17.479Z,43.89
2022-09-09T05:37:48.865Z,43.92
2022-09-09T05:38:20.237Z,44.01
2022-09-09T05:38:51.645Z,43.87
2022-09-09T05:39:23.026Z,44.15
2022-09-09T05:39:54.501Z,44.05
2022-09-09T05:40:25.905Z,43.92
2022-09-09T05:40:57.283Z,43.91
2022-09-09T05:41:28.695Z,43.93
2022-09-09T05:42:00.101Z,44.20
2022-09-09T05:42:31.422Z,43.87
2022-09-09T05:43:02.777Z,43.82
2022-09-09T05:43:34.204Z,44.14
2022-09-09T05:44:05.570Z,44.18
2022-09-09T05:44:36.930Z,43.88
2022-09-09T05:45:08.371Z,43.87
2022-09-09T05:45:39.720Z,43.88
2022-09-09T05:46:11.138Z,43.87
2022-09-09T05:46:42.653Z,44.21
2022-09-09T05:47:14.051Z,44.15
2022-09-09T05:47:45.449Z,44.02
2022-09-09T05:48:16.808Z,44.18
2022-09-09T05:48:48.233Z,43.92
2022-09-09T05:49:19.590Z,43.96
2022-09-09T05:49:50.989Z,44.06
2022-09-09T05:50:22.381Z,44.19
2022-09-09T05:50:53.813Z,43.99
2022-09-09T05:51:25.195Z,43.99
2022-09-09T05:51:56.646Z,43.92
2022-09-09T05:52:28.013Z,43.88
2022-09-09T05:52:59.428Z,43.97
2022-09-09T05:53:30.795Z,43.91
2022-09-09T05:54:02.377Z,44.21
2022-09-09T05:54:33.731Z,43.95
2022-09-09T05:55:05.070Z,43.95
2022-09-09T05:55:36.464Z,44.07
2022-09-09T05:56:07.816Z,44.34
2022-09-09T05:56:39.182Z,44.16
2022-09-09T05:57:10.613Z,44.25
2022-09-09T05:57:42.022Z,44.30
2022-09-09T05:58:13.458Z,44.00
2022-09-09T05:58:44.884Z,44.12
2022-09-09T05:59:16.301Z,43.98
2022-09-09T05:59:47.733Z,44.34
2022-09-09T06:00:19.136Z,43.95
2022-09-09T06:00:50.534Z,44.07
2022-09-09T06:01:21.953Z,44.06
2022-09-09T06:01:53.549Z,43.98
2022-09-09T06:02:25.106Z,44.00
2022-09-09T06:02:56.764Z,43.86
2022-09-09T06:03:28.169Z,44.14
2022-09-09T06:03:59.621Z,44.10
2022-09-09T06:04:31.042Z,44.24
2022-09-09T06:05:02.404Z,44.21
2022-09-09T06:05:33.794Z,43.93
2022-09-09T06:06:05.216Z,44.19
2022-09-09T06:06:36.677Z,44.20
2022-09-09T06:07:08.037Z,44.27
2022-09-09T06:07:39.452Z,44.30
2022-09-09T06:08:10.796Z,44.02
2022-09-09T06:08:42.160Z,44.20
2022-09-09T06:09:13.547Z,44.13
2022-09-09T06:09:44.952Z,44.12
2022-09-09T06:10:16.345Z,44.06
2022-09-09T06:10:47.746Z,44.03
2022-09-09T06:11:19.209Z,44.14
2022-09-09T06:11:50.679Z,44.04
2022-09-09T06:12:22.068Z,44.19
2022-09-09T06:12:53.438Z,43.92
2022-09-09T06:13:24.843Z,44.02
2022-09-09T06:13:56.295Z,43.96
2022-09-09T06:14:27.681Z,43.97
2022-09-09T06:14:59.065Z,43.94
2022-09-09T06:15:30.435Z,44.18
2022-09-09T06:16:01.916Z,44.00
2022-09-09T06:16:33.404Z,44.04
2022-09-09T06:17:04.859Z,44.33
2022-09-09T06:17:36.260Z,44.04
2022-09-09T06:18:07.582Z,44.10
2022-09-09T06:18:38.951Z,44.31
2022-09-09T06:19:10.366Z,44.34
2022-09-09T06:19:41.801Z,44.11
2022-09-09T06:20:13.171Z,44.32
2022-09-09T06:20:44.562Z,44.37
2022-09-09T06:21:15.911Z,44.18
2022-09-09T06:21:47.507Z,44.45
2022-09-09T06:22:18.859Z,44.45
2022-09-09T06:22:50.327Z,44.16
2022-09-09T06:23:21.738Z,44.13
2022-09-09T06:23:54.341Z,44.13
2022-09-09T06:24:28.083Z,44.13
2022-09-09T06:24:59.514Z,44.37
2022-09-09T06:25:30.890Z,44.26
2022-09-09T06:26:02.320Z,44.17
2022-09-09T06:26:33.707Z,44.17
2022-09-09T06:27:05.164Z,44.16
2022-09-09T06:27:36.516Z,44.38
2022-09-09T06:28:07.900Z,44.15
2022-09-09T06:28:39.342Z,44.17
2022-09-09T06:29:10.714Z,44.34
2022-09-09T06:29:42.092Z,44.38
2022-09-09T06:30:13.531Z,44.37
2022-09-09T06:30:44.890Z,44.18
2022-09-09T06:31:16.348Z,44.18
2022-09-09T06:31:47.785Z,44.36
2022-09-09T06:32:19.272Z,44.30
2022-09-09T06:32:50.621Z,44.09
2022-09-09T06:33:21.997Z,44.14
2022-09-09T06:33:53.398Z,44.35
2022-09-09T06:34:24.765Z,44.42
2022-09-09T06:34:56.122Z,44.32
2022-09-09T06:35:27.533Z,44.27
2022-09-09T06:35:58.933Z,44.34
2022-09-09T06:36:30.380Z,44.38
2022-09-09T06:37:01.778Z,44.12
2022-09-09T06:37:33.147Z,44.09
2022-09-09T06:38:05.786Z,44.25
2022-09-09T06:38:37.368Z,44.10
2022-09-09T06:39:13.690Z,44.05
2022-09-09T06:39:46.059Z,44.41
2022-09-09T06:40:17.810Z,44.42
2022-09-09T06:40:49.248Z,44.29
2022-09-09T06:41:20.673Z,44.27
2022-09-09T06:41:52.115Z,44.22
2022-09-09T06:42:23.508Z,44.34
2022-09-09T06:42:54.889Z,44.16
2022-09-09T06:43:26.301Z,44.40
2022-09-09T06:43:57.749Z,44.53
2022-09-09T06:44:33.307Z,44.52
2022-09-09T06:45:06.386Z,44.20
2022-09-09T06:45:37.799Z,44.47
2022-09-09T06:46:09.354Z,44.50
2022-09-09T06:46:40.965Z,44.30